Página principal
METAR-TAF:

METAR-TAF

Aeroportos :

Inverness, Escócia

latitude: 57-32N, longitude: 004-03W, altura: 9 m

Observação actual do tempo

O boletim foi feito há 32 minutos, às 13:50 UTC
Vento 8 kt de sudoeste
Temperatura 5°C
Humidade 87%
Pressão 994 hPa
Visibilidade: 9000 m
Poucas nuvensa uma altura de 500 ft
Nuvens dispersasa uma altura de 1100 ft

METAR: EGPE 021350Z 22008KT 9999 9000NW FEW005 SCT011 05/03 Q0994

Hora: 14:22 (14:22 UTC)

Previsão

O boletim foi feito há 3 horas e 20 minutos, às 11:02 UTC
Previsão válida de 02 às 12 UTC a 02 às 21 UTC
Vento 7 kt de nor-noroeste
Visibilidade 10 km ou mais
Nuvens dispersasa uma altura de 1000 ft
Temporariamente
de 02 às 12 UTC a 02 às 15 UTC
Visibilidade: 6000 m
Nuvens fragmentadasa uma altura de 800 ft
chuva
Probabilidade 40% :
Temporariamente
de 02 às 15 UTC a 02 às 16 UTC
Nuvens fragmentadasa uma altura de 1000 ft

TAF: EGPE 021102Z 0212/0221 34007KT 9999 SCT010 TEMPO 0212/0215 6000 RA BKN008 PROB40 TEMPO 0215/0216 BKN010

Observações e previsões do tempo de mais de 4000 aeroportos (mensagens METAR e TAF).

As estações disponíveis são os pontos amarelos e vermelhos sobre o mapa.

Mova o rato sobre o mapa para ver o nome da estação.

Depois clique no ponto para visualizar as observações e previsões meteorológicas.

Para alterar o mapa : clique nos botões verdes com uma cruz preta para aumentar o zoom; no botão verde com uma pitada de zoom; ou nas setas verdes para mapas adjacentes.


METAR-TAF: